Time;durP1;ratioP1;P1;durP2;ratioP2;P2;SDS_P1;SDS_P2;PMS_P1;PMS_P2;Temp;Humidity;BMP_temperature;BMP_pressure;BME280_temperature;BME280_humidity;BME280_pressure;Samples;Min_cycle;Max_cycle;Signal;HPM_P1;HPM_P2
2022/11/22 00:02:22;;;;;;;18.35;12.15;;;4.50;99.90;;;;;;5079364;28;20036;-48
2022/11/22 00:04:48;;;;;;;19.58;12.95;;;4.60;99.90;;;;;;5076273;28;20040;-48
2022/11/22 00:07:14;;;;;;;17.33;12.23;;;4.70;99.90;;;;;;5087477;28;20566;-48
2022/11/22 00:09:40;;;;;;;15.32;10.15;;;4.70;99.90;;;;;;5080409;28;20097;-48
2022/11/22 00:12:05;;;;;;;13.45;8.85;;;4.70;99.90;;;;;;5074977;28;20036;-56
2022/11/22 00:14:31;;;;;;;15.82;10.05;;;4.40;99.90;;;;;;5088481;28;20040;-49
2022/11/22 00:16:57;;;;;;;15.18;9.45;;;4.50;99.90;;;;;;5086220;28;20020;-56
2022/11/22 00:19:23;;;;;;;13.70;9.50;;;4.30;99.90;;;;;;5089965;28;20024;-52
2022/11/22 00:21:48;;;;;;;12.73;9.38;;;4.40;99.90;;;;;;5102784;28;20066;-52
2022/11/22 00:24:14;;;;;;;14.95;10.07;;;4.40;99.90;;;;;;5078181;28;20052;-51
2022/11/22 00:26:40;;;;;;;15.13;10.20;;;4.40;99.90;;;;;;5083979;28;20031;-55
2022/11/22 00:29:06;;;;;;;16.00;10.05;;;4.50;99.90;;;;;;5086800;28;20050;-50
2022/11/22 00:31:32;;;;;;;14.77;10.95;;;4.50;99.90;;;;;;5093020;28;20032;-51
2022/11/22 00:33:57;;;;;;;11.07;7.65;;;4.50;99.90;;;;;;5082730;28;20093;-51
2022/11/22 00:36:23;;;;;;;7.35;5.10;;;4.30;99.90;;;;;;5049944;28;20044;-50
2022/11/22 00:38:49;;;;;;;11.65;7.95;;;4.10;99.90;;;;;;5079178;28;20037;-50
2022/11/22 00:41:15;;;;;;;12.30;8.50;;;4.00;99.90;;;;;;5083141;28;20115;-50
2022/11/22 00:43:40;;;;;;;12.38;8.18;;;4.10;99.90;;;;;;5086702;28;20028;-50
2022/11/22 00:46:07;;;;;;;10.85;8.00;;;4.00;99.90;;;;;;5054440;28;20400;-50
2022/11/22 00:48:33;;;;;;;10.70;6.40;;;3.90;99.90;;;;;;5086119;28;20095;-50
2022/11/22 00:50:59;;;;;;;14.25;10.18;;;3.70;99.90;;;;;;5078767;28;20032;-50
2022/11/22 00:53:25;;;;;;;14.70;7.30;;;3.70;99.90;;;;;;5083003;28;20036;-51
2022/11/22 00:55:50;;;;;;;15.20;9.93;;;3.70;99.90;;;;;;5074909;28;20380;-51
2022/11/22 00:58:16;;;;;;;17.55;10.43;;;3.80;99.90;;;;;;5079967;28;20408;-51
2022/11/22 01:00:42;;;;;;;14.18;9.60;;;3.90;99.90;;;;;;5080442;28;20044;-51
2022/11/22 01:03:11;;;;;;;13.13;9.23;;;4.00;99.90;;;;;;5082464;28;20448;-50
2022/11/22 01:05:37;;;;;;;13.32;9.95;;;3.90;99.90;;;;;;5082675;28;20475;-50
2022/11/22 01:08:03;;;;;;;13.75;10.05;;;4.00;99.90;;;;;;5098538;28;20046;-51
2022/11/22 01:10:28;;;;;;;14.57;10.35;;;4.20;99.90;;;;;;5093667;28;20195;-50
2022/11/22 01:12:56;;;;;;;14.27;10.10;;;4.20;99.90;;;;;;5077049;28;20040;-52
2022/11/22 01:15:22;;;;;;;17.10;11.50;;;4.30;99.90;;;;;;5078972;28;20078;-50
2022/11/22 01:17:48;;;;;;;15.18;10.10;;;4.30;99.90;;;;;;5092800;28;20421;-50
2022/11/22 01:20:13;;;;;;;14.98;10.65;;;4.20;99.90;;;;;;5079142;28;20054;-50
2022/11/22 01:22:39;;;;;;;15.20;10.75;;;4.10;99.90;;;;;;5085646;28;20044;-50
2022/11/22 01:25:05;;;;;;;13.32;10.07;;;4.10;99.90;;;;;;5084432;28;20032;-52
2022/11/22 01:27:31;;;;;;;14.15;10.10;;;3.80;99.90;;;;;;5078872;28;20024;-50
2022/11/22 01:29:57;;;;;;;15.10;9.80;;;3.80;99.90;;;;;;5095834;28;20043;-50
2022/11/22 01:32:23;;;;;;;16.02;11.23;;;3.70;99.90;;;;;;5081916;28;20479;-50
2022/11/22 01:34:48;;;;;;;13.18;9.57;;;3.70;99.90;;;;;;5081400;28;20027;-50
2022/11/22 01:37:14;;;;;;;13.80;10.50;;;4.00;99.90;;;;;;5081048;28;20044;-50
2022/11/22 01:39:40;;;;;;;13.15;10.43;;;4.00;99.90;;;;;;5083855;28;20028;-50
2022/11/22 01:42:06;;;;;;;12.20;8.77;;;4.10;99.90;;;;;;5097939;28;20043;-50
2022/11/22 01:44:32;;;;;;;15.98;10.45;;;4.00;99.90;;;;;;5088781;28;20532;-50
2022/11/22 01:47:04;;;;;;;11.93;8.15;;;4.00;99.90;;;;;;5084185;28;20094;-50
2022/11/22 01:49:38;;;;;;;13.98;10.05;;;4.00;99.90;;;;;;5089912;28;20071;-50
2022/11/22 01:52:09;;;;;;;14.50;11.23;;;3.90;99.90;;;;;;5096863;28;20032;-52
2022/11/22 01:54:39;;;;;;;15.45;11.13;;;4.10;99.90;;;;;;5089895;28;20032;-54
2022/11/22 01:57:14;;;;;;;15.45;10.88;;;4.20;99.90;;;;;;5081026;28;20170;-52
2022/11/22 01:59:45;;;;;;;13.80;9.68;;;4.20;99.90;;;;;;5081927;28;20043;-50
2022/11/22 02:02:12;;;;;;;15.63;10.00;;;4.30;99.90;;;;;;5081365;28;20042;-50
2022/11/22 02:04:40;;;;;;;16.60;10.80;;;4.30;99.90;;;;;;5085874;28;20289;-50
2022/11/22 02:07:20;;;;;;;16.85;11.02;;;4.20;99.90;;;;;;5080099;28;20035;-51
2022/11/22 02:09:48;;;;;;;14.00;10.38;;;4.00;99.90;;;;;;5075658;28;20028;-50
2022/11/22 02:12:16;;;;;;;16.65;11.30;;;3.80;99.90;;;;;;5077526;28;20029;-50
2022/11/22 02:14:42;;;;;;;13.73;10.65;;;3.60;99.90;;;;;;5101643;28;20046;-50
2022/11/22 02:17:08;;;;;;;17.45;11.15;;;3.50;99.90;;;;;;5077793;28;20043;-50
2022/11/22 02:19:46;;;;;;;14.57;11.23;;;3.60;99.90;;;;;;5047996;28;20036;-50
2022/11/22 02:22:35;;;;;;;14.00;10.75;;;3.70;99.90;;;;;;5077273;28;20020;-51
2022/11/22 02:25:03;;;;;;;16.98;10.65;;;3.70;99.90;;;;;;5075950;28;20406;-50
2022/11/22 02:27:29;;;;;;;16.20;10.57;;;3.80;99.90;;;;;;5081911;28;20116;-50
2022/11/22 02:29:54;;;;;;;14.85;11.45;;;3.50;99.90;;;;;;5080380;28;20111;-50
2022/11/22 02:32:20;;;;;;;13.48;8.82;;;3.50;99.90;;;;;;5076683;28;20029;-50
2022/11/22 02:34:48;;;;;;;14.38;10.30;;;3.40;99.90;;;;;;5085893;28;20120;-50
2022/11/22 02:37:20;;;;;;;14.05;9.93;;;3.20;99.90;;;;;;5080756;28;20119;-50
2022/11/22 02:39:47;;;;;;;15.07;10.20;;;3.30;99.90;;;;;;5076054;28;20028;-50
2022/11/22 02:42:13;;;;;;;14.88;10.77;;;3.40;99.90;;;;;;5076841;28;20063;-51
2022/11/22 02:44:40;;;;;;;19.40;11.70;;;3.40;99.90;;;;;;5086940;28;20032;-50
2022/11/22 02:47:06;;;;;;;15.00;9.57;;;3.30;99.90;;;;;;5079830;28;20080;-51
2022/11/22 02:49:32;;;;;;;13.90;10.45;;;3.30;99.90;;;;;;5083542;28;20059;-50
2022/11/22 02:51:57;;;;;;;13.85;9.57;;;3.20;99.90;;;;;;5086005;28;20021;-50
2022/11/22 02:54:23;;;;;;;16.23;10.52;;;3.20;99.90;;;;;;5074883;28;20050;-50
2022/11/22 02:56:49;;;;;;;14.15;10.38;;;3.20;99.90;;;;;;5081996;28;20040;-50
2022/11/22 02:59:14;;;;;;;14.70;10.35;;;3.10;99.90;;;;;;5081762;28;20411;-50
2022/11/22 03:01:42;;;;;;;17.30;12.90;;;3.00;99.90;;;;;;5085025;28;20027;-50
2022/11/22 03:04:08;;;;;;;15.52;10.80;;;3.00;99.90;;;;;;5086910;28;20144;-50
2022/11/22 03:06:34;;;;;;;20.45;15.00;;;3.00;99.90;;;;;;5091215;28;20087;-50
2022/11/22 03:09:00;;;;;;;18.70;14.00;;;3.20;99.90;;;;;;5086340;28;21281;-50
2022/11/22 03:11:26;;;;;;;16.52;10.85;;;3.20;99.90;;;;;;5086608;28;20222;-50
2022/11/22 03:13:52;;;;;;;15.18;11.07;;;3.00;99.90;;;;;;5086582;28;20384;-50
2022/11/22 03:16:17;;;;;;;21.92;15.68;;;2.90;99.90;;;;;;5081197;28;20033;-50
2022/11/22 03:18:43;;;;;;;19.58;14.45;;;3.10;99.90;;;;;;5086745;28;20036;-50
2022/11/22 03:21:09;;;;;;;19.00;13.77;;;3.30;99.90;;;;;;5077170;28;20043;-50
2022/11/22 03:23:35;;;;;;;17.67;12.55;;;3.20;99.90;;;;;;5083479;28;20039;-51
2022/11/22 03:26:09;;;;;;;21.48;15.60;;;3.10;99.90;;;;;;5086533;28;20024;-50
2022/11/22 03:28:35;;;;;;;17.23;12.00;;;3.30;99.90;;;;;;5087564;28;20032;-53
2022/11/22 03:31:03;;;;;;;17.90;13.43;;;3.20;99.90;;;;;;5081257;28;20086;-50
2022/11/22 03:33:28;;;;;;;18.83;13.68;;;3.20;99.90;;;;;;5083979;28;20025;-56
2022/11/22 03:35:56;;;;;;;14.85;10.40;;;3.20;99.90;;;;;;5092511;28;20405;-51
2022/11/22 03:38:21;;;;;;;14.55;9.70;;;3.00;99.90;;;;;;5108960;28;20071;-50
2022/11/22 03:40:47;;;;;;;15.05;10.52;;;2.90;99.90;;;;;;5083940;28;20059;-50
2022/11/22 03:43:13;;;;;;;17.35;12.05;;;2.80;99.90;;;;;;5095515;28;20056;-50
2022/11/22 03:45:44;;;;;;;15.20;11.07;;;2.80;99.90;;;;;;5081579;28;20039;-50
2022/11/22 03:48:10;;;;;;;16.65;11.27;;;2.80;99.90;;;;;;5085409;28;20060;-50
2022/11/22 03:50:36;;;;;;;16.85;11.13;;;2.80;99.90;;;;;;5098093;28;20035;-51
2022/11/22 03:53:02;;;;;;;13.60;9.43;;;3.00;99.90;;;;;;5080884;28;20040;-50
2022/11/22 03:55:27;;;;;;;18.15;11.45;;;3.00;99.90;;;;;;5080550;28;20032;-50
2022/11/22 03:57:53;;;;;;;18.02;11.90;;;3.00;99.90;;;;;;5102573;28;20847;-50
2022/11/22 04:00:19;;;;;;;16.13;11.52;;;3.10;99.90;;;;;;5081536;28;20043;-49
2022/11/22 04:02:44;;;;;;;16.65;11.40;;;3.00;99.90;;;;;;5077906;28;20093;-50
2022/11/22 04:05:10;;;;;;;18.27;12.68;;;3.00;99.90;;;;;;5083695;28;20044;-54
2022/11/22 04:07:36;;;;;;;18.00;11.98;;;3.10;99.90;;;;;;5082034;28;20020;-51
2022/11/22 04:10:03;;;;;;;22.55;14.10;;;3.20;99.90;;;;;;5085017;28;20113;-50
2022/11/22 04:12:29;;;;;;;22.58;15.52;;;3.20;99.90;;;;;;5077518;28;20123;-49
2022/11/22 04:15:07;;;;;;;17.55;12.70;;;3.30;99.90;;;;;;5100909;28;20033;-50
2022/11/22 04:17:46;;;;;;;26.77;16.13;;;3.40;99.90;;;;;;5084309;28;20048;-50
2022/11/22 04:23:17;;;;;;;18.17;12.10;;;3.40;99.90;;;;;;5078626;28;20384;-50
2022/11/22 04:25:45;;;;;;;15.00;11.52;;;3.40;99.90;;;;;;5078123;28;20107;-50
2022/11/22 04:28:13;;;;;;;15.30;10.35;;;3.40;99.90;;;;;;5080148;28;20161;-50
2022/11/22 04:33:24;;;;;;;20.70;12.98;;;3.40;99.90;;;;;;5079798;28;20043;-50
2022/11/22 04:35:51;;;;;;;16.45;11.23;;;3.40;99.90;;;;;;5082412;28;20032;-50
2022/11/22 04:38:17;;;;;;;15.30;11.10;;;3.50;99.90;;;;;;5077189;28;20040;-51
2022/11/22 04:40:43;;;;;;;13.88;10.27;;;3.40;99.90;;;;;;5085517;28;20433;-50
2022/11/22 04:46:01;;;;;;;13.38;9.63;;;3.40;99.90;;;;;;5083648;28;20071;-50
2022/11/22 04:48:27;;;;;;;15.35;10.00;;;3.30;99.90;;;;;;5087403;28;20064;-50
2022/11/22 04:53:37;;;;;;;9.80;6.68;;;3.10;99.90;;;;;;5085770;28;20043;-50
2022/11/22 04:56:03;;;;;;;14.27;9.82;;;3.00;99.90;;;;;;5077026;28;20032;-50
2022/11/22 04:58:28;;;;;;;15.18;10.13;;;3.00;99.90;;;;;;5081605;28;20040;-54
2022/11/22 05:00:54;;;;;;;14.80;9.27;;;3.00;99.90;;;;;;5088350;28;20041;-59
2022/11/22 05:03:20;;;;;;;15.15;9.20;;;3.00;99.90;;;;;;5081741;28;20025;-55
2022/11/22 05:05:46;;;;;;;16.17;10.57;;;3.00;99.90;;;;;;5079571;28;20502;-50
2022/11/22 05:08:12;;;;;;;16.27;11.98;;;3.00;99.90;;;;;;5088442;28;20077;-50
2022/11/22 05:10:57;;;;;;;18.35;11.13;;;3.10;99.90;;;;;;5079010;28;20436;-50
2022/11/22 05:13:49;;;;;;;15.15;11.18;;;3.30;99.90;;;;;;5080304;28;20131;-50
2022/11/22 05:16:15;;;;;;;14.15;10.35;;;3.40;99.90;;;;;;5080732;28;20042;-50
2022/11/22 05:18:41;;;;;;;17.88;12.88;;;3.40;99.90;;;;;;5076366;28;20394;-50
2022/11/22 05:21:09;;;;;;;24.70;15.45;;;3.50;99.90;;;;;;5084685;28;20033;-50
2022/11/22 05:23:53;;;;;;;17.92;11.77;;;3.60;99.90;;;;;;5078624;28;20028;-50
2022/11/22 05:26:28;;;;;;;16.10;11.93;;;3.70;99.90;;;;;;5084499;28;20067;-50
2022/11/22 05:28:56;;;;;;;14.32;9.52;;;3.70;99.90;;;;;;5085179;28;20522;-51
2022/11/22 05:31:26;;;;;;;13.27;9.50;;;3.50;99.90;;;;;;5086613;28;20565;-50
2022/11/22 05:33:53;;;;;;;9.55;6.95;;;3.20;99.90;;;;;;5083768;28;20407;-51
2022/11/22 05:36:20;;;;;;;12.05;8.23;;;3.00;99.90;;;;;;5085583;28;20100;-50
2022/11/22 05:38:46;;;;;;;15.18;10.60;;;2.90;99.90;;;;;;5085678;28;20040;-50
2022/11/22 05:41:13;;;;;;;13.38;9.43;;;3.00;99.90;;;;;;5092403;28;20119;-50
2022/11/22 05:43:40;;;;;;;10.30;7.25;;;3.00;99.90;;;;;;5076033;28;20075;-50
2022/11/22 05:46:08;;;;;;;8.18;5.43;;;2.90;99.90;;;;;;5081721;28;20057;-51
2022/11/22 05:48:35;;;;;;;16.08;9.80;;;2.80;99.90;;;;;;5096360;28;20036;-50
2022/11/22 05:51:10;;;;;;;12.63;8.68;;;2.80;99.90;;;;;;5084981;28;20375;-52
2022/11/22 05:53:37;;;;;;;18.98;11.20;;;2.80;99.90;;;;;;5078774;28;20056;-50
2022/11/22 05:56:13;;;;;;;11.55;7.13;;;3.10;99.90;;;;;;5083358;28;20379;-51
2022/11/22 05:58:40;;;;;;;13.43;8.32;;;3.00;99.90;;;;;;5080541;28;20449;-50
2022/11/22 06:01:11;;;;;;;12.25;8.95;;;3.10;99.90;;;;;;5077552;28;20049;-50
2022/11/22 06:03:37;;;;;;;18.40;11.77;;;3.10;99.90;;;;;;5074339;28;20044;-50
2022/11/22 06:06:04;;;;;;;16.45;11.23;;;3.20;99.90;;;;;;5052771;28;20433;-50
2022/11/22 06:08:31;;;;;;;14.70;9.93;;;3.20;99.90;;;;;;5074338;28;20033;-50
2022/11/22 06:11:09;;;;;;;14.93;10.13;;;3.30;99.90;;;;;;5048811;28;20055;-50
2022/11/22 06:13:36;;;;;;;14.00;9.20;;;3.30;99.90;;;;;;5049180;28;20025;-50
2022/11/22 06:16:03;;;;;;;14.85;9.20;;;3.30;99.90;;;;;;5049837;28;20489;-50
2022/11/22 06:18:30;;;;;;;17.00;12.15;;;3.30;99.90;;;;;;5048803;28;20604;-50
2022/11/22 06:20:58;;;;;;;22.48;14.30;;;3.40;99.90;;;;;;5049801;28;20067;-50
2022/11/22 06:23:24;;;;;;;15.02;10.02;;;3.60;99.90;;;;;;5049021;28;20037;-50
2022/11/22 06:26:00;;;;;;;17.52;11.95;;;3.70;99.90;;;;;;5015761;28;20044;-51
2022/11/22 06:28:27;;;;;;;19.17;13.02;;;3.90;99.90;;;;;;5048910;28;20118;-50
2022/11/22 06:30:53;;;;;;;18.65;13.88;;;4.00;99.90;;;;;;5049005;28;20406;-50
2022/11/22 06:33:19;;;;;;;18.58;12.55;;;4.20;99.90;;;;;;5060733;28;20025;-50
2022/11/22 06:35:45;;;;;;;13.77;10.63;;;4.30;99.90;;;;;;5063445;28;20064;-50
2022/11/22 06:38:10;;;;;;;15.55;12.57;;;4.20;99.90;;;;;;5070436;28;20573;-50
2022/11/22 06:40:36;;;;;;;15.52;11.90;;;4.40;99.90;;;;;;5069120;28;20032;-50
2022/11/22 06:43:02;;;;;;;16.70;12.57;;;4.60;99.90;;;;;;5090914;28;20077;-50
2022/11/22 06:45:27;;;;;;;16.33;11.20;;;4.80;99.90;;;;;;5087875;28;20115;-50
2022/11/22 06:47:53;;;;;;;14.85;11.18;;;4.70;99.90;;;;;;5086394;28;20055;-51
2022/11/22 06:50:19;;;;;;;17.60;12.27;;;4.80;99.90;;;;;;5086967;28;20021;-50
2022/11/22 06:52:51;;;;;;;13.70;11.27;;;5.00;99.90;;;;;;5088570;28;20033;-50
2022/11/22 06:55:16;;;;;;;17.13;12.10;;;5.00;99.90;;;;;;5078277;28;20446;-53
2022/11/22 06:57:42;;;;;;;18.52;12.88;;;5.30;99.90;;;;;;5086959;28;20139;-50
2022/11/22 07:00:09;;;;;;;15.88;12.20;;;;;;;;;;5081617;28;20414;-50
2022/11/22 07:02:34;;;;;;;12.35;9.63;;;5.80;99.90;;;;;;5008758;28;20123;-50
2022/11/22 07:05:00;;;;;;;14.93;9.88;;;5.40;99.90;;;;;;5065093;28;20263;-50
2022/11/22 07:07:26;;;;;;;15.27;10.45;;;4.80;99.90;;;;;;5079104;28;20020;-50
2022/11/22 07:09:51;;;;;;;12.35;8.30;;;4.80;99.90;;;;;;5087680;28;20067;-50
2022/11/22 07:12:17;;;;;;;12.90;9.57;;;4.70;99.90;;;;;;5046211;28;20087;-51
2022/11/22 07:14:43;;;;;;;12.55;9.57;;;4.80;99.90;;;;;;5084249;28;20399;-50
2022/11/22 07:17:08;;;;;;;12.90;9.23;;;4.90;99.90;;;;;;5079921;28;20060;-50
2022/11/22 07:19:34;;;;;;;13.60;10.10;;;5.00;99.90;;;;;;5084127;28;20051;-50
2022/11/22 07:22:00;;;;;;;14.77;10.18;;;4.90;99.90;;;;;;5082147;28;20028;-51
2022/11/22 07:24:25;;;;;;;14.38;9.95;;;4.90;99.90;;;;;;5083207;28;20024;-50
2022/11/22 07:26:51;;;;;;;13.65;8.88;;;4.70;99.90;;;;;;5061305;28;20032;-50
2022/11/22 07:29:17;;;;;;;13.63;10.70;;;4.50;99.90;;;;;;5088972;28;20035;-51
2022/11/22 07:31:45;;;;;;;13.18;10.55;;;4.50;99.90;;;;;;5114507;27;20395;-50
2022/11/22 07:34:11;;;;;;;16.75;11.75;;;4.70;99.90;;;;;;5083445;28;20109;-51
2022/11/22 07:36:36;;;;;;;16.92;12.30;;;4.60;99.90;;;;;;5053298;28;20070;-50
2022/11/22 07:39:02;;;;;;;22.65;15.20;;;4.60;99.90;;;;;;5089800;28;20124;-50
2022/11/22 07:41:28;;;;;;;21.05;15.73;;;4.70;99.90;;;;;;5079196;28;20029;-51
2022/11/22 07:43:54;;;;;;;15.60;11.05;;;4.90;99.90;;;;;;5077288;28;20131;-50
2022/11/22 07:46:20;;;;;;;18.80;13.48;;;4.60;99.90;;;;;;5089263;28;20119;-50
2022/11/22 07:48:47;;;;;;;15.30;10.45;;;4.70;99.90;;;;;;5086769;28;20028;-50
2022/11/22 07:51:12;;;;;;;16.40;12.02;;;4.70;99.90;;;;;;5081452;28;20047;-50
2022/11/22 07:53:38;;;;;;;14.88;10.80;;;4.80;99.90;;;;;;5083158;28;20039;-51
2022/11/22 07:56:05;;;;;;;10.18;8.25;;;4.90;99.90;;;;;;5082350;28;20043;-50
2022/11/22 07:58:32;;;;;;;13.07;10.50;;;5.00;99.90;;;;;;5084797;28;20402;-50
2022/11/22 08:01:03;;;;;;;12.23;8.63;;;5.10;99.90;;;;;;5080144;28;20036;-50
2022/11/22 08:03:28;;;;;;;12.30;8.73;;;5.20;99.90;;;;;;5087611;28;20446;-50
2022/11/22 08:06:01;;;;;;;11.10;8.00;;;5.40;99.90;;;;;;5082539;28;20143;-52
2022/11/22 08:08:27;;;;;;;10.48;7.80;;;5.40;99.90;;;;;;5087101;28;20103;-50
2022/11/22 08:10:53;;;;;;;9.35;7.03;;;5.60;99.90;;;;;;5077654;28;20127;-50
2022/11/22 08:13:19;;;;;;;11.38;7.30;;;5.60;99.90;;;;;;5083469;28;20114;-50
2022/11/22 08:15:47;;;;;;;6.88;4.93;;;5.80;99.90;;;;;;5081332;28;20020;-50
2022/11/22 08:18:13;;;;;;;6.93;3.67;;;5.70;99.90;;;;;;5076163;28;20396;-51
2022/11/22 08:20:38;;;;;;;6.07;4.35;;;5.80;99.90;;;;;;5084852;28;20044;-50
2022/11/22 08:23:04;;;;;;;8.10;4.97;;;5.80;99.90;;;;;;5095189;28;20036;-50
2022/11/22 08:25:30;;;;;;;11.32;7.72;;;5.80;99.90;;;;;;5080938;28;20383;-51
2022/11/22 08:27:55;;;;;;;10.38;7.78;;;6.00;99.90;;;;;;5077169;28;20040;-51
2022/11/22 08:30:21;;;;;;;11.50;8.43;;;6.30;99.90;;;;;;5082641;28;20055;-51
2022/11/22 08:32:47;;;;;;;10.27;8.00;;;6.40;99.90;;;;;;5077194;28;20487;-50
2022/11/22 08:35:13;;;;;;;11.75;9.13;;;6.60;99.90;;;;;;5100444;28;20092;-50
2022/11/22 08:37:39;;;;;;;14.63;10.25;;;6.80;99.90;;;;;;5081454;28;20483;-50
2022/11/22 08:40:05;;;;;;;10.98;9.25;;;;;;;;;;5081176;28;20024;-50
2022/11/22 08:42:31;;;;;;;9.93;7.57;;;7.10;99.90;;;;;;5081049;28;20020;-50
2022/11/22 08:44:57;;;;;;;9.43;7.43;;;7.00;99.90;;;;;;5093161;28;20511;-50
2022/11/22 08:47:22;;;;;;;9.75;7.63;;;7.10;99.90;;;;;;5084423;28;20051;-50
2022/11/22 08:49:48;;;;;;;9.73;7.38;;;7.10;99.90;;;;;;5083534;28;20106;-50
2022/11/22 08:52:14;;;;;;;7.60;6.50;;;7.10;99.90;;;;;;5080093;28;20020;-51
2022/11/22 08:54:39;;;;;;;8.95;6.68;;;7.20;99.90;;;;;;5103336;28;20043;-50
2022/11/22 08:57:05;;;;;;;8.68;5.32;;;7.30;99.90;;;;;;5086953;28;20388;-51
2022/11/22 08:59:31;;;;;;;6.05;4.47;;;7.30;99.90;;;;;;5081419;28;20040;-50
2022/11/22 09:01:57;;;;;;;10.35;6.43;;;7.30;99.90;;;;;;5081818;28;20047;-52
2022/11/22 09:04:23;;;;;;;8.98;6.18;;;7.30;99.90;;;;;;5083497;28;20024;-51
2022/11/22 09:06:49;;;;;;;9.48;6.28;;;7.40;99.90;;;;;;5087354;28;20037;-51
2022/11/22 09:09:14;;;;;;;8.23;5.65;;;7.40;99.90;;;;;;5080227;28;20020;-50
2022/11/22 09:11:40;;;;;;;11.38;7.40;;;7.40;99.90;;;;;;5079496;28;20495;-50
2022/11/22 09:14:06;;;;;;;9.25;6.13;;;7.50;99.90;;;;;;5075350;28;20430;-50
2022/11/22 09:16:32;;;;;;;4.82;3.67;;;7.50;99.90;;;;;;5082185;28;20116;-50
2022/11/22 09:18:58;;;;;;;7.25;5.00;;;7.50;99.90;;;;;;5084200;28;20098;-51
2022/11/22 09:21:24;;;;;;;8.27;5.70;;;7.50;99.90;;;;;;5077141;28;20031;-50
2022/11/22 09:23:52;;;;;;;8.07;5.78;;;7.50;99.90;;;;;;5073714;28;20036;-50
2022/11/22 09:26:21;;;;;;;6.50;4.18;;;7.50;99.90;;;;;;5075667;28;20036;-50
2022/11/22 09:28:47;;;;;;;8.65;5.82;;;7.40;99.90;;;;;;5077170;28;20036;-51
2022/11/22 09:31:18;;;;;;;8.70;6.22;;;7.60;99.90;;;;;;5079449;28;20483;-51
2022/11/22 09:33:45;;;;;;;9.27;6.40;;;7.60;99.90;;;;;;5083146;28;20093;-50
2022/11/22 09:36:13;;;;;;;8.27;6.18;;;7.70;99.90;;;;;;5080989;28;20035;-51
2022/11/22 09:38:39;;;;;;;11.00;5.97;;;7.80;99.90;;;;;;5075178;28;20037;-50
2022/11/22 09:41:35;;;;;;;7.63;4.93;;;7.80;99.90;;;;;;5073820;28;20020;-52
2022/11/22 09:44:22;;;;;;;11.43;6.93;;;7.70;99.90;;;;;;5086161;28;20145;-51
2022/11/22 09:47:13;;;;;;;10.77;7.05;;;7.70;99.90;;;;;;5099619;28;20462;-51
2022/11/22 09:49:51;;;;;;;6.80;5.05;;;7.80;99.90;;;;;;5080444;28;20051;-51
2022/11/22 09:52:44;;;;;;;9.27;6.45;;;7.70;99.90;;;;;;5083566;28;20115;-51
2022/11/22 09:55:22;;;;;;;14.45;8.93;;;7.80;99.90;;;;;;5112785;27;20156;-51
2022/11/22 09:57:52;;;;;;;12.55;6.88;;;7.90;99.90;;;;;;5083212;28;20047;-50
2022/11/22 10:00:24;;;;;;;12.25;8.10;;;7.80;99.90;;;;;;5101225;28;20044;-53
2022/11/22 10:03:27;;;;;;;7.70;4.80;;;7.90;99.90;;;;;;5081996;28;20051;-49
2022/11/22 10:05:58;;;;;;;7.63;4.97;;;7.90;99.90;;;;;;5084632;28;20464;-48
2022/11/22 10:09:07;;;;;;;9.15;5.32;;;8.00;99.90;;;;;;5081429;28;20494;-47
2022/11/22 10:11:48;;;;;;;16.40;9.48;;;8.00;99.90;;;;;;5034779;28;20044;-48
2022/11/22 10:14:36;;;;;;;14.15;9.02;;;8.00;99.90;;;;;;5052369;28;20108;-47
2022/11/22 10:17:39;;;;;;;11.98;7.53;;;8.00;99.90;;;;;;5051151;28;20063;-47
2022/11/22 10:20:18;;;;;;;9.65;7.28;;;8.10;99.90;;;;;;5050752;28;20029;-47
2022/11/22 10:22:44;;;;;;;9.23;6.57;;;8.10;99.90;;;;;;5052482;28;20109;-47
2022/11/22 10:25:33;;;;;;;4.32;3.20;;;8.20;99.90;;;;;;5035491;28;20047;-47
2022/11/22 10:28:29;;;;;;;13.20;7.93;;;8.20;99.90;;;;;;5011779;28;20034;-47
2022/11/22 10:31:01;;;;;;;10.75;3.55;;;8.20;99.90;;;;;;4997072;28;20045;-47
2022/11/22 10:33:41;;;;;;;6.88;3.78;;;8.20;99.90;;;;;;4996286;28;20030;-47
2022/11/22 10:36:24;;;;;;;7.57;5.57;;;8.20;99.90;;;;;;5008577;28;20042;-47
2022/11/22 10:39:17;;;;;;;7.13;4.97;;;8.20;99.90;;;;;;5012931;28;20088;-47
2022/11/22 10:41:58;;;;;;;6.25;3.97;;;8.20;99.90;;;;;;4951287;29;20039;-48
2022/11/22 10:44:48;;;;;;;5.85;4.10;;;8.30;99.90;;;;;;4953632;28;20079;-47
2022/11/22 10:47:40;;;;;;;7.85;5.35;;;8.30;99.90;;;;;;4953654;28;20403;-47
2022/11/22 10:50:29;;;;;;;7.68;5.78;;;8.40;99.90;;;;;;4978237;28;20044;-47
2022/11/22 10:53:06;;;;;;;6.53;4.45;;;8.30;99.90;;;;;;4963614;28;20125;-48
2022/11/22 10:55:53;;;;;;;9.85;6.63;;;8.40;99.90;;;;;;4969673;28;20458;-47
2022/11/22 10:59:04;;;;;;;7.85;4.55;;;8.40;99.90;;;;;;4967666;28;20485;-47
2022/11/22 11:01:48;;;;;;;13.30;8.10;;;8.30;99.90;;;;;;4935176;29;20047;-47
2022/11/22 11:04:16;;;;;;;9.63;4.20;;;8.40;99.90;;;;;;4922194;29;20483;-47
2022/11/22 11:06:48;;;;;;;7.30;4.88;;;8.30;99.90;;;;;;4939638;29;20070;-47
2022/11/22 11:09:20;;;;;;;4.95;3.67;;;8.20;99.90;;;;;;4941603;29;20562;-48
2022/11/22 11:11:48;;;;;;;11.15;5.97;;;8.10;99.90;;;;;;4942086;29;20028;-48
2022/11/22 11:14:25;;;;;;;10.13;6.80;;;8.10;99.90;;;;;;4941943;29;20506;-47
2022/11/22 11:16:52;;;;;;;4.40;3.28;;;8.10;99.90;;;;;;4933805;29;20131;-47
2022/11/22 11:19:23;;;;;;;7.25;5.47;;;8.10;99.90;;;;;;4942503;29;20078;-49
2022/11/22 11:21:58;;;;;;;9.10;6.00;;;8.20;99.90;;;;;;4929229;29;20039;-47
2022/11/22 11:24:26;;;;;;;7.80;5.00;;;8.20;99.90;;;;;;4945914;29;20035;-48
2022/11/22 11:26:54;;;;;;;7.63;5.47;;;8.20;99.90;;;;;;4936936;29;20122;-48
2022/11/22 11:29:40;;;;;;;8.18;5.75;;;8.20;99.90;;;;;;4957202;28;20066;-48
2022/11/22 11:32:12;;;;;;;7.22;5.00;;;8.30;99.90;;;;;;5006943;28;20092;-49
2022/11/22 11:34:41;;;;;;;10.05;6.32;;;8.30;99.90;;;;;;4991356;28;20061;-48
2022/11/22 11:37:25;;;;;;;6.22;3.90;;;8.50;99.90;;;;;;5012891;28;20033;-50
2022/11/22 11:39:51;;;;;;;8.55;6.03;;;8.50;99.90;;;;;;5087142;28;20494;-48
2022/11/22 11:42:22;;;;;;;10.23;5.88;;;8.50;99.90;;;;;;5101994;28;20032;-48
2022/11/22 11:44:47;;;;;;;15.82;7.65;;;8.50;99.90;;;;;;5081670;28;20024;-49
2022/11/22 11:47:32;;;;;;;12.63;7.13;;;8.60;99.90;;;;;;5080269;28;20119;-49
2022/11/22 11:49:58;;;;;;;8.80;5.57;;;8.70;99.90;;;;;;5081950;28;20024;-48
2022/11/22 11:52:25;;;;;;;12.00;5.50;;;8.60;99.90;;;;;;5080136;28;20027;-49
2022/11/22 11:54:59;;;;;;;10.45;6.88;;;8.60;99.90;;;;;;5077284;28;20040;-48
2022/11/22 11:57:32;;;;;;;10.02;6.32;;;8.70;99.90;;;;;;5082789;28;20090;-48
2022/11/22 12:00:05;;;;;;;8.95;6.07;;;8.80;99.90;;;;;;5085195;28;20059;-48
2022/11/22 12:02:49;;;;;;;11.27;6.25;;;8.90;99.90;;;;;;5088434;28;20470;-48
2022/11/22 12:05:15;;;;;;;8.52;5.13;;;8.90;99.90;;;;;;5080284;28;20081;-49
2022/11/22 12:07:43;;;;;;;7.22;4.85;;;8.80;99.90;;;;;;5064105;28;20039;-48
2022/11/22 12:10:35;;;;;;;8.05;4.90;;;8.90;99.90;;;;;;5091161;28;20031;-48
2022/11/22 12:13:10;;;;;;;;;;;8.90;99.90;;;;;;5078507;28;20357;-48
2022/11/22 12:15:58;;;;;;;7.97;4.95;;;9.00;99.90;;;;;;5078549;28;19961;-50
2022/11/22 12:18:42;;;;;;;6.68;4.70;;;8.90;99.90;;;;;;5083427;28;20104;-48
2022/11/22 12:21:22;;;;;;;7.40;5.32;;;8.90;99.90;;;;;;5088616;28;20488;-48
2022/11/22 12:24:00;;;;;;;8.98;5.78;;;9.00;99.90;;;;;;5090604;28;20041;-48
2022/11/22 12:26:26;;;;;;;8.40;4.28;;;8.90;99.90;;;;;;5084705;28;20044;-56
2022/11/22 12:28:53;;;;;;;8.80;6.32;;;8.90;99.90;;;;;;5098552;28;20123;-49
2022/11/22 12:31:24;;;;;;;6.32;4.43;;;9.00;99.90;;;;;;5094823;28;20071;-49
2022/11/22 12:33:58;;;;;;;6.53;4.32;;;9.00;99.90;;;;;;5082783;28;20032;-48
2022/11/22 12:36:49;;;;;;;6.25;3.60;;;8.90;99.90;;;;;;5087125;28;20111;-49
2022/11/22 12:39:20;;;;;;;9.68;6.32;;;8.90;99.90;;;;;;5084931;28;20425;-48
2022/11/22 12:41:48;;;;;;;10.20;7.30;;;8.80;99.90;;;;;;5081693;28;20024;-49
2022/11/22 12:44:19;;;;;;;8.88;6.72;;;8.90;99.90;;;;;;5086072;28;20052;-48
2022/11/22 12:46:56;;;;;;;11.23;6.60;;;8.90;99.90;;;;;;5082934;28;20048;-49
2022/11/22 12:50:03;;;;;;;7.25;4.88;;;9.00;99.90;;;;;;5085903;28;20024;-49
2022/11/22 12:52:41;;;;;;;9.57;5.30;;;8.90;99.90;;;;;;5057056;28;20045;-50
2022/11/22 12:55:29;;;;;;;10.43;7.20;;;8.90;99.90;;;;;;5062132;28;20516;-49
2022/11/22 12:58:22;;;;;;;7.10;3.28;;;8.90;99.90;;;;;;5056088;28;20044;-49
2022/11/22 13:01:12;;;;;;;8.88;5.57;;;8.80;99.90;;;;;;5064591;28;20032;-49
2022/11/22 13:04:09;;;;;;;10.48;6.25;;;8.80;99.90;;;;;;5060139;28;20489;-49
2022/11/22 13:07:06;;;;;;;8.55;5.38;;;8.80;99.90;;;;;;5058627;28;20511;-49
2022/11/22 13:09:41;;;;;;;9.25;5.80;;;8.80;99.90;;;;;;5036745;28;20074;-49
2022/11/22 13:12:16;;;;;;;10.43;6.78;;;8.90;99.90;;;;;;5061572;28;20028;-49
2022/11/22 13:14:52;;;;;;;8.13;5.85;;;8.90;99.90;;;;;;5055823;28;20086;-48